Time;durP1;ratioP1;P1;durP2;ratioP2;P2;SDS_P1;SDS_P2;PMS_P1;PMS_P2;Temp;Humidity;BMP_temperature;BMP_pressure;BME280_temperature;BME280_humidity;BME280_pressure;Samples;Min_cycle;Max_cycle;Signal;HPM_P1;HPM_P2
2023/08/29 00:01:17;;;;;;;11.35;10.85;;;;;;;;;;5082048;28;20024;-62
2023/08/29 00:03:42;;;;;;;11.40;10.90;;;;;;;;;;5081822;28;20128;-61
2023/08/29 00:06:07;;;;;;;11.35;10.85;;;;;;;;;;5077903;28;20016;-61
2023/08/29 00:08:33;;;;;;;11.25;10.75;;;;;;;;;;5085588;28;20387;-62
2023/08/29 00:10:59;;;;;;;11.20;10.70;;;;;;;;;;5081686;28;20082;-61
2023/08/29 00:13:24;;;;;;;11.32;10.82;;;;;;;;;;5082246;28;20050;-61
2023/08/29 00:15:50;;;;;;;11.23;10.73;;;;;;;;;;5080475;28;20040;-60
2023/08/29 00:18:15;;;;;;;11.30;10.80;;;;;;;;;;5081878;28;20027;-60
2023/08/29 00:20:40;;;;;;;11.40;10.90;;;;;;;;;;5088158;28;20043;-60
2023/08/29 00:23:09;;;;;;;11.60;11.10;;;;;;;;;;5078373;28;20277;-60
2023/08/29 00:25:34;;;;;;;11.48;10.98;;;;;;;;;;5083268;28;20115;-60
2023/08/29 00:27:59;;;;;;;11.50;11.00;;;;;;;;;;5084605;28;20115;-60
2023/08/29 00:30:25;;;;;;;11.68;11.18;;;;;;;;;;5080495;28;20071;-60
2023/08/29 00:32:50;;;;;;;11.40;10.90;;;;;;;;;;5082530;28;20071;-61
2023/08/29 00:35:15;;;;;;;11.03;10.53;;;;;;;;;;5079767;28;20036;-60
2023/08/29 00:37:40;;;;;;;11.25;10.75;;;;;;;;;;5082856;28;20755;-59
2023/08/29 00:40:07;;;;;;;11.40;10.90;;;;;;;;;;5083817;28;20020;-61
2023/08/29 00:42:32;;;;;;;11.38;10.88;;;;;;;;;;5084761;28;20081;-60
2023/08/29 00:44:58;;;;;;;11.27;10.77;;;;;;;;;;5081400;28;20114;-61
2023/08/29 00:47:23;;;;;;;11.50;11.00;;;;;;;;;;5081356;28;20411;-60
2023/08/29 00:49:48;;;;;;;11.50;11.00;;;;;;;;;;5082950;28;20023;-61
2023/08/29 00:52:14;;;;;;;11.35;10.85;;;;;;;;;;5081072;28;20104;-61
2023/08/29 00:54:39;;;;;;;11.30;10.80;;;;;;;;;;5086882;28;20470;-60
2023/08/29 00:57:04;;;;;;;11.50;11.00;;;;;;;;;;5080108;28;20031;-61
2023/08/29 00:59:30;;;;;;;11.52;11.02;;;;;;;;;;5084947;28;20040;-61
2023/08/29 01:01:55;;;;;;;11.30;10.80;;;;;;;;;;5084513;28;20028;-61
2023/08/29 01:04:20;;;;;;;11.55;11.05;;;;;;;;;;5083111;28;20055;-60
2023/08/29 01:06:46;;;;;;;11.35;10.85;;;;;;;;;;5087855;28;20031;-60
2023/08/29 01:09:11;;;;;;;11.10;10.60;;;;;;;;;;5085188;28;20020;-60
2023/08/29 01:11:48;;;;;;;11.38;10.88;;;;;;;;;;5086143;28;20020;-60
2023/08/29 01:14:14;;;;;;;11.32;10.82;;;;;;;;;;5089246;28;20016;-60
2023/08/29 01:16:48;;;;;;;11.13;10.63;;;;;;;;;;5087731;28;20022;-60
2023/08/29 01:19:14;;;;;;;11.25;10.75;;;;;;;;;;5081745;28;20027;-60
2023/08/29 01:21:45;;;;;;;10.93;10.43;;;;;;;;;;5083416;28;20024;-61
2023/08/29 01:24:17;;;;;;;11.23;10.73;;;;;;;;;;5083867;28;20387;-60
2023/08/29 01:26:42;;;;;;;11.13;10.63;;;;;;;;;;5083624;28;20021;-60
2023/08/29 01:29:08;;;;;;;11.18;10.68;;;;;;;;;;5084494;28;20021;-60
2023/08/29 01:31:34;;;;;;;11.57;11.07;;;;;;;;;;5084971;28;20016;-60
2023/08/29 01:34:00;;;;;;;11.25;10.75;;;;;;;;;;5084772;28;20137;-61
2023/08/29 01:36:43;;;;;;;12.45;11.85;;;;;;;;;;5081596;28;20046;-60
2023/08/29 01:39:09;;;;;;;11.10;10.60;;;;;;;;;;5085650;28;20020;-61
2023/08/29 01:41:35;;;;;;;11.35;10.85;;;;;;;;;;5080685;28;20027;-60
2023/08/29 01:44:01;;;;;;;11.10;10.60;;;;;;;;;;5088842;28;20111;-61
2023/08/29 01:46:27;;;;;;;11.25;10.75;;;;;;;;;;5086167;28;20034;-61
2023/08/29 01:48:53;;;;;;;11.63;11.13;;;;;;;;;;5081998;28;20020;-61
2023/08/29 01:51:18;;;;;;;11.43;10.93;;;;;;;;;;5087158;28;20028;-61
2023/08/29 01:53:43;;;;;;;11.40;10.90;;;;;;;;;;5084560;28;20123;-60
2023/08/29 01:56:11;;;;;;;11.40;10.90;;;;;;;;;;5083691;28;20031;-60
2023/08/29 01:58:37;;;;;;;11.70;11.20;;;;;;;;;;5082406;28;20264;-62
2023/08/29 02:01:02;;;;;;;11.20;10.70;;;;;;;;;;5087466;28;20119;-61
2023/08/29 02:03:28;;;;;;;10.95;10.45;;;;;;;;;;5087607;28;20146;-60
2023/08/29 02:05:53;;;;;;;11.20;10.70;;;;;;;;;;5085602;28;20036;-59
2023/08/29 02:08:18;;;;;;;11.25;10.75;;;;;;;;;;5088970;28;20016;-60
2023/08/29 02:10:44;;;;;;;11.10;10.60;;;;;;;;;;5085693;28;20036;-61
2023/08/29 02:13:09;;;;;;;11.18;10.68;;;;;;;;;;5086794;28;20623;-61
2023/08/29 02:15:35;;;;;;;11.43;10.93;;;;;;;;;;5091190;28;20028;-60
2023/08/29 02:18:00;;;;;;;11.20;10.70;;;;;;;;;;5080148;28;20475;-61
2023/08/29 02:20:25;;;;;;;11.50;11.00;;;;;;;;;;5085921;28;20023;-61
2023/08/29 02:22:51;;;;;;;11.70;11.20;;;;;;;;;;5088673;28;20035;-60
2023/08/29 02:25:16;;;;;;;11.57;11.07;;;;;;;;;;5083906;28;20032;-59
2023/08/29 02:27:41;;;;;;;11.35;10.85;;;;;;;;;;5083407;28;20090;-59
2023/08/29 02:30:07;;;;;;;11.48;10.98;;;;;;;;;;5085315;28;20069;-60
2023/08/29 02:32:34;;;;;;;11.43;10.93;;;;;;;;;;5078074;28;20112;-61
2023/08/29 02:34:59;;;;;;;11.38;10.88;;;;;;;;;;5085534;28;20099;-60
2023/08/29 02:37:25;;;;;;;11.40;10.90;;;;;;;;;;5082566;28;20466;-61
2023/08/29 02:39:50;;;;;;;11.40;10.90;;;;;;;;;;5079659;28;20017;-60
2023/08/29 02:42:15;;;;;;;11.50;11.00;;;;;;;;;;5079768;28;20504;-59
2023/08/29 02:44:41;;;;;;;11.50;11.00;;;;;;;;;;5084697;28;20126;-59
2023/08/29 02:47:06;;;;;;;11.15;10.65;;;;;;;;;;5085346;28;20423;-60
2023/08/29 02:49:31;;;;;;;11.45;10.95;;;;;;;;;;5081873;28;20469;-60
2023/08/29 02:51:57;;;;;;;11.38;10.88;;;;;;;;;;5088139;28;20035;-61
2023/08/29 02:54:22;;;;;;;11.40;10.90;;;;;;;;;;5084821;28;20317;-61
2023/08/29 02:56:47;;;;;;;11.43;10.93;;;;;;;;;;5083513;28;20089;-60
2023/08/29 02:59:13;;;;;;;11.40;10.90;;;;;;;;;;5084332;28;20170;-60
2023/08/29 03:01:38;;;;;;;11.30;10.80;;;;;;;;;;5080188;28;20314;-60
2023/08/29 03:04:03;;;;;;;11.48;10.98;;;;;;;;;;5082677;28;20097;-60
2023/08/29 03:06:29;;;;;;;11.50;11.00;;;;;;;;;;5078838;28;20055;-60
2023/08/29 03:08:54;;;;;;;11.30;10.80;;;;;;;;;;5084291;28;20020;-60
2023/08/29 03:11:19;;;;;;;11.50;11.00;;;;;;;;;;5084662;28;20881;-61
2023/08/29 03:13:45;;;;;;;11.15;10.65;;;;;;;;;;5083354;28;20023;-60
2023/08/29 03:16:13;;;;;;;11.55;11.05;;;;;;;;;;5084875;28;20020;-60
2023/08/29 03:18:39;;;;;;;11.45;10.95;;;;;;;;;;5081535;28;20479;-61
2023/08/29 03:21:05;;;;;;;11.68;11.18;;;;;;;;;;5077741;28;20043;-61
2023/08/29 03:23:30;;;;;;;11.02;10.52;;;;;;;;;;5084765;28;20024;-60
2023/08/29 03:26:02;;;;;;;11.25;10.75;;;;;;;;;;5081140;28;20068;-60
2023/08/29 03:28:28;;;;;;;11.15;10.65;;;;;;;;;;5086255;28;20028;-62
2023/08/29 03:30:53;;;;;;;11.00;10.50;;;;;;;;;;5085040;28;20023;-61
2023/08/29 03:33:18;;;;;;;11.07;10.57;;;;;;;;;;5085238;28;20020;-61
2023/08/29 03:35:44;;;;;;;11.20;10.70;;;;;;;;;;5083064;28;20024;-61
2023/08/29 03:38:09;;;;;;;11.48;10.98;;;;;;;;;;5082225;28;20123;-60
2023/08/29 03:40:36;;;;;;;11.65;11.15;;;;;;;;;;5084537;28;20495;-61
2023/08/29 03:43:02;;;;;;;11.43;10.93;;;;;;;;;;5076942;28;20020;-61
2023/08/29 03:45:27;;;;;;;11.48;10.98;;;;;;;;;;5081390;28;20063;-61
2023/08/29 03:47:52;;;;;;;11.23;10.73;;;;;;;;;;5079909;28;20103;-60
2023/08/29 03:50:19;;;;;;;11.27;10.77;;;;;;;;;;5088495;28;20032;-60
2023/08/29 03:52:44;;;;;;;11.55;11.05;;;;;;;;;;5084536;28;20036;-61
2023/08/29 03:55:09;;;;;;;11.18;10.68;;;;;;;;;;5083523;28;20487;-61
2023/08/29 03:57:35;;;;;;;11.40;10.90;;;;;;;;;;5086446;28;20028;-61
2023/08/29 04:00:06;;;;;;;11.20;10.70;;;;;;;;;;5083158;28;20028;-60
2023/08/29 04:02:31;;;;;;;11.73;11.23;;;;;;;;;;5079929;28;20074;-61
2023/08/29 04:05:09;;;;;;;11.87;11.37;;;;;;;;;;5082091;28;20073;-61
2023/08/29 04:07:36;;;;;;;11.80;11.30;;;;;;;;;;5079900;28;20317;-61
2023/08/29 04:10:03;;;;;;;11.65;11.15;;;;;;;;;;5078159;28;20565;-62
2023/08/29 04:12:28;;;;;;;11.55;11.05;;;;;;;;;;5081720;28;20152;-61
2023/08/29 04:14:54;;;;;;;12.30;11.80;;;;;;;;;;5079917;28;20086;-61
2023/08/29 04:17:19;;;;;;;11.57;11.07;;;;;;;;;;5080801;28;20020;-62
2023/08/29 04:19:44;;;;;;;11.98;11.48;;;;;;;;;;5082587;28;20547;-61
2023/08/29 04:22:09;;;;;;;11.60;11.10;;;;;;;;;;5081284;28;20028;-61
2023/08/29 04:24:35;;;;;;;11.63;11.13;;;;;;;;;;5081898;28;20063;-61
2023/08/29 04:27:01;;;;;;;11.37;10.87;;;;;;;;;;5086132;28;20280;-61
2023/08/29 04:29:26;;;;;;;11.77;11.27;;;;;;;;;;5083612;28;20292;-60
2023/08/29 04:31:53;;;;;;;11.45;10.95;;;;;;;;;;5081883;28;20059;-62
2023/08/29 04:34:19;;;;;;;11.75;11.25;;;;;;;;;;5081763;28;20027;-61
2023/08/29 04:36:45;;;;;;;11.55;11.05;;;;;;;;;;5082772;28;20377;-61
2023/08/29 04:39:10;;;;;;;11.68;11.18;;;;;;;;;;5080940;28;20024;-61
2023/08/29 04:41:36;;;;;;;11.82;11.32;;;;;;;;;;5081134;28;20085;-61
2023/08/29 04:44:01;;;;;;;11.75;11.25;;;;;;;;;;5080567;28;20025;-61
2023/08/29 04:46:26;;;;;;;11.90;11.40;;;;;;;;;;5074580;28;20436;-61
2023/08/29 04:48:51;;;;;;;11.82;11.32;;;;;;;;;;5086744;28;20387;-62
2023/08/29 04:51:17;;;;;;;11.73;11.23;;;;;;;;;;5082103;28;20044;-61
2023/08/29 04:53:42;;;;;;;11.95;11.45;;;;;;;;;;5083321;28;20603;-61
2023/08/29 04:56:07;;;;;;;11.98;11.48;;;;;;;;;;5082583;28;20028;-60
2023/08/29 04:58:33;;;;;;;11.97;11.47;;;;;;;;;;5081760;28;20027;-61
2023/08/29 05:01:00;;;;;;;11.93;11.43;;;;;;;;;;5084978;28;20360;-60
2023/08/29 05:03:26;;;;;;;12.00;11.50;;;;;;;;;;5085187;28;20388;-61
2023/08/29 05:05:52;;;;;;;12.25;11.75;;;;;;;;;;5081761;28;20147;-60
2023/08/29 05:08:17;;;;;;;11.82;11.32;;;;;;;;;;5082285;28;20072;-61
2023/08/29 05:10:43;;;;;;;11.87;11.37;;;;;;;;;;5083937;28;20110;-59
2023/08/29 05:13:09;;;;;;;12.20;11.70;;;;;;;;;;5083844;28;20755;-61
2023/08/29 05:15:34;;;;;;;12.00;11.50;;;;;;;;;;5079457;28;20024;-61
2023/08/29 05:17:59;;;;;;;11.93;11.43;;;;;;;;;;5081466;28;20024;-61
2023/08/29 05:20:24;;;;;;;12.00;11.50;;;;;;;;;;5076065;28;20081;-59
2023/08/29 05:22:50;;;;;;;12.15;11.65;;;;;;;;;;5080196;28;20303;-59
2023/08/29 05:25:15;;;;;;;11.90;11.40;;;;;;;;;;5078751;28;20490;-60
2023/08/29 05:27:41;;;;;;;11.98;11.48;;;;;;;;;;5080927;28;21100;-59
2023/08/29 05:30:07;;;;;;;12.20;11.70;;;;;;;;;;5079941;28;20352;-59
2023/08/29 05:32:33;;;;;;;11.88;11.38;;;;;;;;;;5079815;28;20020;-60
2023/08/29 05:34:58;;;;;;;11.98;11.48;;;;;;;;;;5082131;28;20437;-60
2023/08/29 05:37:23;;;;;;;11.95;11.45;;;;;;;;;;5080204;28;20028;-58
2023/08/29 05:39:49;;;;;;;12.13;11.63;;;;;;;;;;5075767;28;20028;-58
2023/08/29 05:42:14;;;;;;;11.95;11.45;;;;;;;;;;5078906;28;20064;-60
2023/08/29 05:44:39;;;;;;;11.93;11.43;;;;;;;;;;5078425;28;20070;-60
2023/08/29 05:47:05;;;;;;;11.90;11.40;;;;;;;;;;5079991;28;20077;-60
2023/08/29 05:49:30;;;;;;;11.83;11.33;;;;;;;;;;5080843;28;20420;-58
2023/08/29 05:51:55;;;;;;;11.70;11.20;;;;;;;;;;5080561;28;20271;-60
2023/08/29 05:54:21;;;;;;;12.00;11.50;;;;;;;;;;5078983;28;20020;-60
2023/08/29 05:56:46;;;;;;;12.03;11.53;;;;;;;;;;5084644;28;20325;-60
2023/08/29 05:59:11;;;;;;;11.93;11.43;;;;;;;;;;5077317;28;20280;-58
2023/08/29 06:01:36;;;;;;;12.10;11.60;;;;;;;;;;5084163;28;20479;-58
2023/08/29 06:04:04;;;;;;;11.93;11.43;;;;;;;;;;5082119;28;20292;-59
2023/08/29 06:06:31;;;;;;;11.77;11.27;;;;;;;;;;5084529;28;20050;-59
2023/08/29 06:08:56;;;;;;;11.82;11.32;;;;;;;;;;5079077;28;20473;-60
2023/08/29 06:11:22;;;;;;;12.00;11.50;;;;;;;;;;5082706;28;20023;-58
2023/08/29 06:13:47;;;;;;;11.88;11.38;;;;;;;;;;5082696;28;20037;-62
2023/08/29 06:16:12;;;;;;;11.83;11.33;;;;;;;;;;5078504;28;20097;-62
2023/08/29 06:18:38;;;;;;;11.93;11.43;;;;;;;;;;5079489;28;20329;-62
2023/08/29 06:21:04;;;;;;;11.75;11.25;;;;;;;;;;5084749;28;20483;-62
2023/08/29 06:23:30;;;;;;;11.98;11.48;;;;;;;;;;5082092;28;20126;-63
2023/08/29 06:25:55;;;;;;;11.67;11.17;;;;;;;;;;5080622;28;20100;-64
2023/08/29 06:28:21;;;;;;;12.02;11.52;;;;;;;;;;5082950;28;20012;-62
2023/08/29 06:30:46;;;;;;;11.93;11.43;;;;;;;;;;5077046;28;20020;-62
2023/08/29 06:33:12;;;;;;;11.97;11.47;;;;;;;;;;5083470;28;20122;-61
2023/08/29 06:35:38;;;;;;;12.10;11.60;;;;;;;;;;5082456;28;21320;-63
2023/08/29 06:38:04;;;;;;;12.03;11.53;;;;;;;;;;5084140;28;20032;-63
2023/08/29 06:40:29;;;;;;;11.98;11.48;;;;;;;;;;5079681;28;20276;-63
2023/08/29 06:42:54;;;;;;;11.97;11.47;;;;;;;;;;5088596;28;20020;-62
2023/08/29 06:45:20;;;;;;;12.07;11.57;;;;;;;;;;5087026;28;20270;-63
2023/08/29 06:47:45;;;;;;;11.70;11.20;;;;;;;;;;5082053;28;20027;-63
2023/08/29 06:50:11;;;;;;;12.00;11.50;;;;;;;;;;5081255;28;20020;-63
2023/08/29 06:52:36;;;;;;;11.65;11.15;;;;;;;;;;5083135;28;20261;-64
2023/08/29 06:55:02;;;;;;;11.87;11.37;;;;;;;;;;5083217;28;20019;-63
2023/08/29 06:57:28;;;;;;;12.13;11.63;;;;;;;;;;5074496;28;20598;-65
2023/08/29 06:59:53;;;;;;;11.77;11.27;;;;;;;;;;5075619;28;20040;-69
2023/08/29 07:02:18;;;;;;;11.93;11.43;;;;;;;;;;5077085;28;20027;-68
2023/08/29 07:04:44;;;;;;;11.90;11.40;;;;;;;;;;5074911;28;21425;-70
2023/08/29 07:07:09;;;;;;;11.87;11.37;;;;;;;;;;5071461;28;20016;-67
2023/08/29 07:09:35;;;;;;;12.03;11.53;;;;;;;;;;5077609;28;20028;-67
2023/08/29 07:12:00;;;;;;;11.90;11.40;;;;;;;;;;5078557;28;20755;-70
2023/08/29 07:14:25;;;;;;;12.18;11.68;;;;;;;;;;5076841;28;20056;-70
2023/08/29 07:16:51;;;;;;;11.80;11.30;;;;;;;;;;5077137;28;20039;-69
2023/08/29 07:19:16;;;;;;;12.13;11.63;;;;;;;;;;5077904;28;20024;-68
2023/08/29 07:21:42;;;;;;;12.20;11.70;;;;;;;;;;5078915;28;20043;-69
2023/08/29 07:24:07;;;;;;;12.07;11.57;;;;;;;;;;5079261;28;20083;-69
2023/08/29 07:26:32;;;;;;;12.20;11.70;;;;;;;;;;5076449;28;20043;-70
2023/08/29 07:28:59;;;;;;;11.77;11.27;;;;;;;;;;5071457;28;20295;-67
2023/08/29 07:31:24;;;;;;;11.95;11.45;;;;;;;;;;5075089;28;20278;-66
2023/08/29 07:33:50;;;;;;;12.07;11.57;;;;;;;;;;5075795;28;20024;-66
2023/08/29 07:36:15;;;;;;;11.80;11.30;;;;;;;;;;5073759;28;20355;-66
2023/08/29 07:38:41;;;;;;;12.10;11.60;;;;;;;;;;5078220;28;20510;-67
2023/08/29 07:41:06;;;;;;;12.00;11.50;;;;;;;;;;5074939;28;20461;-65
2023/08/29 07:43:31;;;;;;;12.00;11.50;;;;;;;;;;5077391;28;20399;-68
2023/08/29 07:45:58;;;;;;;11.98;11.48;;;;;;;;;;5074633;28;20368;-66
2023/08/29 07:48:23;;;;;;;12.18;11.68;;;;;;;;;;5075626;28;20028;-65
2023/08/29 07:50:49;;;;;;;11.90;11.40;;;;;;;;;;5072380;28;20368;-67
2023/08/29 07:53:14;;;;;;;11.48;10.98;;;;;;;;;;5074522;28;20026;-65
2023/08/29 07:55:41;;;;;;;11.82;11.32;;;;;;;;;;5071397;28;20028;-66
2023/08/29 07:58:06;;;;;;;11.70;11.20;;;;;;;;;;5071592;28;20025;-65
2023/08/29 08:00:32;;;;;;;12.10;11.60;;;;;;;;;;5075683;28;20028;-67
2023/08/29 08:02:57;;;;;;;11.68;11.18;;;;;;;;;;5076803;28;20079;-68
2023/08/29 08:05:23;;;;;;;11.90;11.40;;;;;;;;;;5076581;28;20547;-67
2023/08/29 08:07:49;;;;;;;12.07;11.57;;;;;;;;;;5079101;28;20879;-67
2023/08/29 08:10:15;;;;;;;12.07;11.57;;;;;;;;;;5079705;28;20050;-67
2023/08/29 08:12:41;;;;;;;11.77;11.27;;;;;;;;;;5080400;28;20103;-66
2023/08/29 08:15:07;;;;;;;11.70;11.20;;;;;;;;;;5081000;28;20104;-66
2023/08/29 08:17:33;;;;;;;11.85;11.35;;;;;;;;;;5081167;28;20610;-68
2023/08/29 08:19:58;;;;;;;11.55;11.05;;;;;;;;;;5082094;28;20110;-66
2023/08/29 08:22:24;;;;;;;11.83;11.33;;;;;;;;;;5081307;28;20029;-66
2023/08/29 08:24:49;;;;;;;11.35;10.85;;;;;;;;;;5080122;28;20017;-66
2023/08/29 08:27:15;;;;;;;11.88;11.38;;;;;;;;;;5080823;28;20016;-65
2023/08/29 08:29:42;;;;;;;11.40;10.90;;;;;;;;;;5079058;28;20016;-66
2023/08/29 08:32:07;;;;;;;11.48;10.98;;;;;;;;;;5077693;28;20024;-70
2023/08/29 08:34:32;;;;;;;11.60;11.10;;;;;;;;;;5076486;28;20843;-67
2023/08/29 08:36:58;;;;;;;11.20;10.70;;;;;;;;;;5076186;28;20747;-66
2023/08/29 08:39:23;;;;;;;11.30;10.80;;;;;;;;;;5078579;28;20414;-65
2023/08/29 08:41:49;;;;;;;11.70;11.20;;;;;;;;;;5082164;28;20027;-68
2023/08/29 08:44:18;;;;;;;11.50;11.00;;;;;;;;;;5077708;28;20025;-67
2023/08/29 08:46:44;;;;;;;11.63;11.13;;;;;;;;;;5077237;28;20544;-67
2023/08/29 08:49:10;;;;;;;11.48;10.98;;;;;;;;;;5079325;28;20024;-65
2023/08/29 08:51:37;;;;;;;11.63;11.13;;;;;;;;;;5082461;28;20054;-68
2023/08/29 08:54:02;;;;;;;11.65;11.15;;;;;;;;;;5080711;28;20024;-69
2023/08/29 08:56:28;;;;;;;11.80;11.30;;;;;;;;;;5081401;28;20039;-67
2023/08/29 08:58:54;;;;;;;11.45;10.95;;;;;;;;;;5079161;28;20039;-69
2023/08/29 09:01:19;;;;;;;11.70;11.20;;;;;;;;;;5077366;28;20038;-66
2023/08/29 09:03:45;;;;;;;11.60;11.10;;;;;;;;;;5082802;28;20048;-67
2023/08/29 09:06:10;;;;;;;11.80;11.30;;;;;;;;;;5082424;28;20451;-67
2023/08/29 09:08:36;;;;;;;11.80;11.30;;;;;;;;;;5079249;28;20020;-68
2023/08/29 09:11:03;;;;;;;11.93;11.43;;;;;;;;;;5079952;28;20017;-66
2023/08/29 09:13:28;;;;;;;11.80;11.30;;;;;;;;;;5077734;28;20016;-68
2023/08/29 09:15:54;;;;;;;11.65;11.15;;;;;;;;;;5083414;28;20537;-66
2023/08/29 09:18:22;;;;;;;11.48;10.98;;;;;;;;;;5074751;28;20024;-65
2023/08/29 09:20:50;;;;;;;12.00;11.50;;;;;;;;;;5077229;28;20035;-66
2023/08/29 09:23:25;;;;;;;11.73;11.23;;;;;;;;;;5082545;28;20020;-68
2023/08/29 09:25:58;;;;;;;11.88;11.38;;;;;;;;;;5079491;28;20514;-69
2023/08/29 09:28:27;;;;;;;11.65;11.15;;;;;;;;;;5083499;28;20029;-67
2023/08/29 09:30:53;;;;;;;11.98;11.48;;;;;;;;;;5083545;28;20050;-66
2023/08/29 09:33:20;;;;;;;11.52;11.02;;;;;;;;;;5081176;28;20395;-68
2023/08/29 09:35:46;;;;;;;11.82;11.32;;;;;;;;;;5083286;28;20507;-69
2023/08/29 09:38:12;;;;;;;11.70;11.20;;;;;;;;;;5084011;28;20032;-68
2023/08/29 09:40:50;;;;;;;11.35;10.85;;;;;;;;;;5081256;28;20464;-66
2023/08/29 09:43:16;;;;;;;11.65;11.15;;;;;;;;;;5084592;28;20110;-67
2023/08/29 09:45:42;;;;;;;11.88;11.38;;;;;;;;;;5083186;28;20086;-67
2023/08/29 09:48:08;;;;;;;11.90;11.40;;;;;;;;;;5086301;28;20062;-68
2023/08/29 09:50:34;;;;;;;11.93;11.43;;;;;;;;;;5085245;28;20020;-70
2023/08/29 09:53:02;;;;;;;11.50;11.00;;;;;;;;;;5081580;28;20016;-69
2023/08/29 09:55:33;;;;;;;11.73;11.23;;;;;;;;;;5084967;28;20031;-68
2023/08/29 09:58:00;;;;;;;11.80;11.30;;;;;;;;;;5074821;28;20046;-66
2023/08/29 10:00:26;;;;;;;11.68;11.18;;;;;;;;;;5080173;28;20028;-65
2023/08/29 10:02:56;;;;;;;11.82;11.32;;;;;;;;;;5083562;28;20052;-64
2023/08/29 10:05:26;;;;;;;11.38;10.88;;;;;;;;;;5078836;28;20433;-64
2023/08/29 10:07:54;;;;;;;11.82;11.32;;;;;;;;;;5074641;28;20028;-64
2023/08/29 10:10:20;;;;;;;12.10;11.60;;;;;;;;;;5075660;28;20015;-64
2023/08/29 10:12:46;;;;;;;12.00;11.50;;;;;;;;;;5076532;28;20078;-65
2023/08/29 10:15:11;;;;;;;11.50;11.00;;;;;;;;;;5072091;28;20032;-64
2023/08/29 10:17:37;;;;;;;11.68;11.18;;;;;;;;;;5077482;28;20043;-65
2023/08/29 10:20:09;;;;;;;11.63;11.13;;;;;;;;;;5074416;28;20041;-66
2023/08/29 10:22:36;;;;;;;11.93;11.43;;;;;;;;;;5075451;28;20107;-66
2023/08/29 10:25:03;;;;;;;11.75;11.25;;;;;;;;;;5074332;28;20368;-65
2023/08/29 10:27:28;;;;;;;11.65;11.15;;;;;;;;;;5074560;28;20441;-64
2023/08/29 10:29:53;;;;;;;11.77;11.27;;;;;;;;;;5070595;28;20028;-67
2023/08/29 10:32:19;;;;;;;11.55;11.05;;;;;;;;;;5076261;28;20071;-64
2023/08/29 10:34:45;;;;;;;11.50;11.00;;;;;;;;;;5076573;28;20100;-65
2023/08/29 10:37:20;;;;;;;11.53;11.03;;;;;;;;;;5072833;28;20025;-67
2023/08/29 10:39:45;;;;;;;11.68;11.18;;;;;;;;;;5075783;28;20330;-63
2023/08/29 10:42:14;;;;;;;11.68;11.18;;;;;;;;;;5076328;28;20804;-63
2023/08/29 10:44:40;;;;;;;11.90;11.40;;;;;;;;;;5072430;28;20023;-64
2023/08/29 10:47:26;;;;;;;12.10;11.60;;;;;;;;;;5076069;28;20032;-64
2023/08/29 10:50:02;;;;;;;11.50;11.00;;;;;;;;;;5078005;28;20047;-65
2023/08/29 10:52:41;;;;;;;11.88;11.38;;;;;;;;;;5066942;28;20032;-66
2023/08/29 10:55:27;;;;;;;11.73;11.23;;;;;;;;;;5072059;28;20039;-66
2023/08/29 10:57:53;;;;;;;11.55;11.05;;;;;;;;;;5074363;28;20386;-65
2023/08/29 11:00:35;;;;;;;11.70;11.20;;;;;;;;;;5079222;28;20136;-65
2023/08/29 11:03:01;;;;;;;11.70;11.20;;;;;;;;;;5075006;28;20135;-65
2023/08/29 11:05:27;;;;;;;11.50;11.00;;;;;;;;;;5074373;28;20471;-69
2023/08/29 11:07:52;;;;;;;11.60;11.10;;;;;;;;;;5078884;28;20072;-68
2023/08/29 11:10:22;;;;;;;11.50;11.00;;;;;;;;;;5074431;28;20040;-69
2023/08/29 11:13:06;;;;;;;11.65;11.15;;;;;;;;;;5077669;28;20020;-68
2023/08/29 11:15:49;;;;;;;11.75;11.25;;;;;;;;;;5077287;28;20020;-68
2023/08/29 11:18:41;;;;;;;11.82;11.32;;;;;;;;;;5072144;28;20147;-68
2023/08/29 11:21:07;;;;;;;11.57;11.07;;;;;;;;;;5077798;28;20024;-67
2023/08/29 11:23:34;;;;;;;11.55;11.05;;;;;;;;;;5077294;28;20040;-68
2023/08/29 11:26:00;;;;;;;11.55;11.05;;;;;;;;;;5071555;28;20025;-68
2023/08/29 11:28:25;;;;;;;11.88;11.38;;;;;;;;;;5076907;28;20470;-67
2023/08/29 11:30:51;;;;;;;11.87;11.37;;;;;;;;;;5079671;28;20480;-66
2023/08/29 11:33:16;;;;;;;11.55;11.05;;;;;;;;;;5073530;28;20263;-68
2023/08/29 11:35:42;;;;;;;11.50;11.00;;;;;;;;;;5076190;28;20255;-68
2023/08/29 11:38:07;;;;;;;11.30;10.80;;;;;;;;;;5079204;28;20063;-66
2023/08/29 11:40:34;;;;;;;11.38;10.88;;;;;;;;;;5072949;28;20451;-68
2023/08/29 11:42:59;;;;;;;11.32;10.82;;;;;;;;;;5081977;28;20032;-67
2023/08/29 11:45:30;;;;;;;11.40;10.90;;;;;;;;;;5076668;28;20055;-68
2023/08/29 11:47:58;;;;;;;11.55;11.05;;;;;;;;;;5081145;28;20056;-67
2023/08/29 11:50:23;;;;;;;11.85;11.35;;;;;;;;;;5075844;28;20055;-68
2023/08/29 11:52:49;;;;;;;11.55;11.05;;;;;;;;;;5082759;28;20036;-67
2023/08/29 11:55:17;;;;;;;11.63;11.13;;;;;;;;;;5079735;28;20038;-67
2023/08/29 11:57:44;;;;;;;11.88;11.38;;;;;;;;;;5071609;28;20279;-63
2023/08/29 12:00:09;;;;;;;11.48;10.98;;;;;;;;;;5071108;28;20047;-66
2023/08/29 12:02:35;;;;;;;11.55;11.05;;;;;;;;;;5073038;28;20036;-66
2023/08/29 12:05:00;;;;;;;11.65;11.15;;;;;;;;;;5077041;28;20082;-66
2023/08/29 12:07:32;;;;;;;11.60;11.10;;;;;;;;;;5074214;28;20086;-65
2023/08/29 12:10:05;;;;;;;11.90;11.40;;;;;;;;;;5074995;28;20081;-66
2023/08/29 12:12:33;;;;;;;12.00;11.50;;;;;;;;;;5072587;28;20418;-66
2023/08/29 12:14:59;;;;;;;11.45;10.95;;;;;;;;;;5072881;28;20029;-67
2023/08/29 12:17:38;;;;;;;11.82;11.32;;;;;;;;;;5074929;28;20021;-64
2023/08/29 12:20:03;;;;;;;11.70;11.20;;;;;;;;;;5076510;28;20081;-66
2023/08/29 12:22:29;;;;;;;11.80;11.30;;;;;;;;;;5078470;28;20020;-66
2023/08/29 12:24:55;;;;;;;11.90;11.40;;;;;;;;;;5074931;28;20115;-66
2023/08/29 12:27:20;;;;;;;11.73;11.23;;;;;;;;;;5068078;28;20038;-69
2023/08/29 12:29:45;;;;;;;11.90;11.40;;;;;;;;;;5071289;28;20025;-66
2023/08/29 12:32:13;;;;;;;11.80;11.30;;;;;;;;;;5074296;28;20020;-65
2023/08/29 12:34:38;;;;;;;11.65;11.15;;;;;;;;;;5075898;28;20636;-67
2023/08/29 12:37:05;;;;;;;12.00;11.50;;;;;;;;;;5076534;28;20479;-65
2023/08/29 12:39:30;;;;;;;11.68;11.18;;;;;;;;;;5079160;28;20451;-66
2023/08/29 12:41:56;;;;;;;11.70;11.20;;;;;;;;;;5074444;28;20020;-65
2023/08/29 12:44:21;;;;;;;11.82;11.32;;;;;;;;;;5073569;28;20083;-67
2023/08/29 12:46:46;;;;;;;11.83;11.33;;;;;;;;;;5074387;28;20024;-66
2023/08/29 12:49:12;;;;;;;11.77;11.27;;;;;;;;;;5076286;28;20012;-68
2023/08/29 12:51:37;;;;;;;11.70;11.20;;;;;;;;;;5069740;28;20027;-66
2023/08/29 12:54:02;;;;;;;11.68;11.18;;;;;;;;;;5077109;28;20248;-66
2023/08/29 12:56:28;;;;;;;12.00;11.50;;;;;;;;;;5071550;28;20020;-64
2023/08/29 12:58:53;;;;;;;11.60;11.10;;;;;;;;;;5075723;28;20550;-66
2023/08/29 13:01:18;;;;;;;11.70;11.20;;;;;;;;;;5079853;28;20020;-64
2023/08/29 13:03:44;;;;;;;11.80;11.30;;;;;;;;;;5078499;28;20100;-64
2023/08/29 13:06:09;;;;;;;11.23;10.73;;;;;;;;;;5083399;28;20295;-67
2023/08/29 13:08:34;;;;;;;11.30;10.80;;;;;;;;;;5079367;28;20130;-65
2023/08/29 13:10:59;;;;;;;11.10;10.60;;;;;;;;;;5084842;28;20264;-67
2023/08/29 13:13:25;;;;;;;11.40;10.90;;;;;;;;;;5077670;28;20419;-64
2023/08/29 13:15:50;;;;;;;11.52;11.02;;;;;;;;;;5077328;28;20281;-67
2023/08/29 13:18:16;;;;;;;11.30;10.80;;;;;;;;;;5078341;28;20040;-66
2023/08/29 13:20:41;;;;;;;11.30;10.80;;;;;;;;;;5079592;28;20497;-67
2023/08/29 13:23:07;;;;;;;11.33;10.83;;;;;;;;;;5080690;28;20278;-65
2023/08/29 13:25:32;;;;;;;11.20;10.70;;;;;;;;;;5083928;28;20302;-64
2023/08/29 13:27:57;;;;;;;11.17;10.67;;;;;;;;;;5078467;28;20252;-68
2023/08/29 13:30:23;;;;;;;11.25;10.75;;;;;;;;;;5078839;28;21082;-69
2023/08/29 13:32:48;;;;;;;11.43;10.93;;;;;;;;;;5081159;28;20486;-69
2023/08/29 13:35:14;;;;;;;11.60;11.10;;;;;;;;;;5078457;28;20404;-69
2023/08/29 13:37:39;;;;;;;11.57;11.07;;;;;;;;;;5083962;28;20028;-69
2023/08/29 13:40:05;;;;;;;11.30;10.80;;;;;;;;;;5087193;28;20024;-70
2023/08/29 13:42:30;;;;;;;10.98;10.48;;;;;;;;;;5082420;28;20551;-63
2023/08/29 13:45:00;;;;;;;11.10;10.60;;;;;;;;;;5088381;28;20158;-63
2023/08/29 13:47:41;;;;;;;11.23;10.73;;;;;;;;;;5085351;28;20292;-61
2023/08/29 13:50:07;;;;;;;11.40;10.90;;;;;;;;;;5087302;28;20481;-62
2023/08/29 13:52:32;;;;;;;11.25;10.75;;;;;;;;;;5087832;28;20025;-63
2023/08/29 13:54:57;;;;;;;11.27;10.77;;;;;;;;;;5084261;28;20099;-62
2023/08/29 13:57:23;;;;;;;11.10;10.60;;;;;;;;;;5087606;28;20260;-62
2023/08/29 13:59:48;;;;;;;11.03;10.53;;;;;;;;;;5089141;28;20264;-62
2023/08/29 14:02:13;;;;;;;10.83;10.33;;;;;;;;;;5084456;28;20981;-62
2023/08/29 14:04:39;;;;;;;11.33;10.83;;;;;;;;;;5082108;28;20279;-62
2023/08/29 14:07:04;;;;;;;11.10;10.60;;;;;;;;;;5085397;28;20028;-62
2023/08/29 14:09:29;;;;;;;11.30;10.80;;;;;;;;;;5086249;28;20273;-62
2023/08/29 14:11:55;;;;;;;11.20;10.70;;;;;;;;;;5086679;28;20012;-62